sensor_id;sensor_type;location;lat;lon;timestamp;P1;durP1;ratioP1;P2;durP2;ratioP2
8640;SDS011;4358;42.100;25.222;2023-11-21T00:01:05;17.77;;;8.00;;
8640;SDS011;4358;42.100;25.222;2023-11-21T00:03:35;26.63;;;12.10;;
8640;SDS011;4358;42.100;25.222;2023-11-21T00:06:02;15.60;;;8.57;;
8640;SDS011;4358;42.100;25.222;2023-11-21T00:08:29;8.67;;;6.27;;
8640;SDS011;4358;42.100;25.222;2023-11-21T00:10:56;7.27;;;6.03;;
8640;SDS011;4358;42.100;25.222;2023-11-21T00:13:25;9.63;;;6.97;;
8640;SDS011;4358;42.100;25.222;2023-11-21T00:15:52;11.13;;;7.30;;
8640;SDS011;4358;42.100;25.222;2023-11-21T00:18:20;17.60;;;8.10;;
8640;SDS011;4358;42.100;25.222;2023-11-21T00:20:48;13.50;;;8.23;;
8640;SDS011;4358;42.100;25.222;2023-11-21T00:23:15;16.13;;;8.30;;
8640;SDS011;4358;42.100;25.222;2023-11-21T00:25:43;11.90;;;8.13;;
8640;SDS011;4358;42.100;25.222;2023-11-21T00:28:10;14.33;;;8.77;;
8640;SDS011;4358;42.100;25.222;2023-11-21T00:30:37;19.70;;;10.17;;
8640;SDS011;4358;42.100;25.222;2023-11-21T00:33:04;16.20;;;10.90;;
8640;SDS011;4358;42.100;25.222;2023-11-21T00:35:31;16.47;;;9.70;;
8640;SDS011;4358;42.100;25.222;2023-11-21T00:37:59;14.67;;;9.70;;
8640;SDS011;4358;42.100;25.222;2023-11-21T00:40:26;17.27;;;10.87;;
8640;SDS011;4358;42.100;25.222;2023-11-21T00:42:53;21.13;;;10.23;;
8640;SDS011;4358;42.100;25.222;2023-11-21T00:45:21;12.20;;;7.43;;
8640;SDS011;4358;42.100;25.222;2023-11-21T00:47:48;12.90;;;8.20;;
8640;SDS011;4358;42.100;25.222;2023-11-21T00:50:14;12.30;;;7.17;;
8640;SDS011;4358;42.100;25.222;2023-11-21T00:52:41;14.23;;;7.43;;
8640;SDS011;4358;42.100;25.222;2023-11-21T00:55:10;11.57;;;6.83;;
8640;SDS011;4358;42.100;25.222;2023-11-21T00:57:37;10.83;;;5.33;;
8640;SDS011;4358;42.100;25.222;2023-11-21T01:00:04;8.83;;;4.80;;
8640;SDS011;4358;42.100;25.222;2023-11-21T01:02:34;5.13;;;4.00;;
8640;SDS011;4358;42.100;25.222;2023-11-21T01:05:02;8.33;;;4.67;;
8640;SDS011;4358;42.100;25.222;2023-11-21T01:07:29;6.70;;;4.87;;
8640;SDS011;4358;42.100;25.222;2023-11-21T01:09:55;6.30;;;4.43;;
8640;SDS011;4358;42.100;25.222;2023-11-21T01:12:24;5.57;;;4.00;;
8640;SDS011;4358;42.100;25.222;2023-11-21T01:14:51;8.20;;;5.27;;
8640;SDS011;4358;42.100;25.222;2023-11-21T01:17:18;9.67;;;5.77;;
8640;SDS011;4358;42.100;25.222;2023-11-21T01:19:47;12.13;;;5.70;;
8640;SDS011;4358;42.100;25.222;2023-11-21T01:22:14;11.70;;;5.60;;
8640;SDS011;4358;42.100;25.222;2023-11-21T01:24:41;8.47;;;5.50;;
8640;SDS011;4358;42.100;25.222;2023-11-21T01:27:08;13.83;;;7.30;;
8640;SDS011;4358;42.100;25.222;2023-11-21T01:29:36;15.20;;;7.73;;
8640;SDS011;4358;42.100;25.222;2023-11-21T01:32:03;14.10;;;8.30;;
8640;SDS011;4358;42.100;25.222;2023-11-21T01:34:33;14.67;;;8.93;;
8640;SDS011;4358;42.100;25.222;2023-11-21T01:37:00;15.53;;;8.83;;
8640;SDS011;4358;42.100;25.222;2023-11-21T01:39:29;16.73;;;9.10;;
8640;SDS011;4358;42.100;25.222;2023-11-21T01:41:56;13.33;;;8.60;;
8640;SDS011;4358;42.100;25.222;2023-11-21T01:44:24;14.40;;;8.53;;
8640;SDS011;4358;42.100;25.222;2023-11-21T01:46:52;11.97;;;7.50;;
8640;SDS011;4358;42.100;25.222;2023-11-21T01:49:19;12.33;;;8.13;;
8640;SDS011;4358;42.100;25.222;2023-11-21T01:51:48;13.40;;;7.17;;
8640;SDS011;4358;42.100;25.222;2023-11-21T01:54:17;12.47;;;7.17;;
8640;SDS011;4358;42.100;25.222;2023-11-21T01:56:45;12.83;;;7.60;;
8640;SDS011;4358;42.100;25.222;2023-11-21T01:59:14;11.73;;;7.27;;
8640;SDS011;4358;42.100;25.222;2023-11-21T02:01:44;11.13;;;6.93;;
8640;SDS011;4358;42.100;25.222;2023-11-21T02:04:13;12.43;;;7.17;;
8640;SDS011;4358;42.100;25.222;2023-11-21T02:06:41;11.47;;;7.77;;
8640;SDS011;4358;42.100;25.222;2023-11-21T02:09:08;14.73;;;7.73;;
8640;SDS011;4358;42.100;25.222;2023-11-21T02:11:35;10.80;;;6.90;;
8640;SDS011;4358;42.100;25.222;2023-11-21T02:14:04;12.27;;;8.00;;
8640;SDS011;4358;42.100;25.222;2023-11-21T02:16:34;15.37;;;8.00;;
8640;SDS011;4358;42.100;25.222;2023-11-21T02:19:01;13.27;;;7.53;;
8640;SDS011;4358;42.100;25.222;2023-11-21T02:21:35;13.47;;;8.00;;
8640;SDS011;4358;42.100;25.222;2023-11-21T02:24:07;10.57;;;7.47;;
8640;SDS011;4358;42.100;25.222;2023-11-21T02:26:35;12.20;;;6.67;;
8640;SDS011;4358;42.100;25.222;2023-11-21T02:29:02;13.93;;;7.60;;
8640;SDS011;4358;42.100;25.222;2023-11-21T02:31:29;13.77;;;7.97;;
8640;SDS011;4358;42.100;25.222;2023-11-21T02:33:58;12.47;;;7.47;;
8640;SDS011;4358;42.100;25.222;2023-11-21T02:36:25;10.20;;;6.43;;
8640;SDS011;4358;42.100;25.222;2023-11-21T02:38:51;12.57;;;7.10;;
8640;SDS011;4358;42.100;25.222;2023-11-21T02:41:20;11.10;;;6.67;;
8640;SDS011;4358;42.100;25.222;2023-11-21T02:43:47;14.07;;;7.03;;
8640;SDS011;4358;42.100;25.222;2023-11-21T02:46:13;13.07;;;7.47;;
8640;SDS011;4358;42.100;25.222;2023-11-21T02:48:40;11.50;;;7.60;;
8640;SDS011;4358;42.100;25.222;2023-11-21T02:51:07;13.13;;;8.57;;
8640;SDS011;4358;42.100;25.222;2023-11-21T02:53:34;11.40;;;8.37;;
8640;SDS011;4358;42.100;25.222;2023-11-21T02:56:01;13.93;;;7.90;;
8640;SDS011;4358;42.100;25.222;2023-11-21T02:58:29;9.80;;;6.57;;
8640;SDS011;4358;42.100;25.222;2023-11-21T03:00:56;12.63;;;6.40;;
8640;SDS011;4358;42.100;25.222;2023-11-21T03:03:23;12.03;;;6.67;;
8640;SDS011;4358;42.100;25.222;2023-11-21T03:05:50;10.27;;;6.57;;
8640;SDS011;4358;42.100;25.222;2023-11-21T03:08:17;12.33;;;7.53;;
8640;SDS011;4358;42.100;25.222;2023-11-21T03:10:44;14.50;;;7.70;;
8640;SDS011;4358;42.100;25.222;2023-11-21T03:13:11;15.97;;;7.30;;
8640;SDS011;4358;42.100;25.222;2023-11-21T03:15:40;8.63;;;6.73;;
8640;SDS011;4358;42.100;25.222;2023-11-21T03:18:07;10.83;;;6.73;;
8640;SDS011;4358;42.100;25.222;2023-11-21T03:20:34;14.47;;;7.87;;
8640;SDS011;4358;42.100;25.222;2023-11-21T03:23:01;13.83;;;7.27;;
8640;SDS011;4358;42.100;25.222;2023-11-21T03:25:28;12.53;;;7.47;;
8640;SDS011;4358;42.100;25.222;2023-11-21T03:27:56;11.77;;;6.80;;
8640;SDS011;4358;42.100;25.222;2023-11-21T03:30:23;12.30;;;7.00;;
8640;SDS011;4358;42.100;25.222;2023-11-21T03:32:51;14.17;;;9.20;;
8640;SDS011;4358;42.100;25.222;2023-11-21T03:35:18;20.97;;;12.80;;
8640;SDS011;4358;42.100;25.222;2023-11-21T03:37:46;17.93;;;7.20;;
8640;SDS011;4358;42.100;25.222;2023-11-21T03:40:13;11.07;;;7.37;;
8640;SDS011;4358;42.100;25.222;2023-11-21T03:42:40;22.93;;;11.73;;
8640;SDS011;4358;42.100;25.222;2023-11-21T03:45:07;13.93;;;8.23;;
8640;SDS011;4358;42.100;25.222;2023-11-21T03:47:37;16.33;;;7.50;;
8640;SDS011;4358;42.100;25.222;2023-11-21T03:50:06;12.07;;;7.30;;
8640;SDS011;4358;42.100;25.222;2023-11-21T03:52:34;12.03;;;6.63;;
8640;SDS011;4358;42.100;25.222;2023-11-21T03:55:01;15.73;;;7.50;;
8640;SDS011;4358;42.100;25.222;2023-11-21T03:57:29;11.60;;;6.90;;
8640;SDS011;4358;42.100;25.222;2023-11-21T03:59:56;8.30;;;5.90;;
8640;SDS011;4358;42.100;25.222;2023-11-21T04:02:23;8.73;;;5.60;;
8640;SDS011;4358;42.100;25.222;2023-11-21T04:04:51;12.10;;;7.10;;
8640;SDS011;4358;42.100;25.222;2023-11-21T04:07:19;12.07;;;6.50;;
8640;SDS011;4358;42.100;25.222;2023-11-21T04:09:47;13.37;;;7.17;;
8640;SDS011;4358;42.100;25.222;2023-11-21T04:12:14;10.83;;;7.00;;
8640;SDS011;4358;42.100;25.222;2023-11-21T04:14:41;15.20;;;7.63;;
8640;SDS011;4358;42.100;25.222;2023-11-21T04:17:08;16.97;;;8.90;;
8640;SDS011;4358;42.100;25.222;2023-11-21T04:19:34;18.57;;;9.27;;
8640;SDS011;4358;42.100;25.222;2023-11-21T04:22:01;21.43;;;10.60;;
8640;SDS011;4358;42.100;25.222;2023-11-21T04:24:30;19.97;;;11.40;;
8640;SDS011;4358;42.100;25.222;2023-11-21T04:26:57;26.37;;;11.57;;
8640;SDS011;4358;42.100;25.222;2023-11-21T04:29:25;23.70;;;11.93;;
8640;SDS011;4358;42.100;25.222;2023-11-21T04:31:52;18.73;;;10.20;;
8640;SDS011;4358;42.100;25.222;2023-11-21T04:34:19;17.90;;;10.80;;
8640;SDS011;4358;42.100;25.222;2023-11-21T04:36:45;23.43;;;12.67;;
8640;SDS011;4358;42.100;25.222;2023-11-21T04:39:12;27.40;;;12.73;;
8640;SDS011;4358;42.100;25.222;2023-11-21T04:41:40;21.53;;;11.30;;
8640;SDS011;4358;42.100;25.222;2023-11-21T04:44:08;22.47;;;11.90;;
8640;SDS011;4358;42.100;25.222;2023-11-21T04:46:34;27.33;;;12.60;;
8640;SDS011;4358;42.100;25.222;2023-11-21T04:49:01;24.03;;;12.80;;
8640;SDS011;4358;42.100;25.222;2023-11-21T04:51:28;24.43;;;12.40;;
8640;SDS011;4358;42.100;25.222;2023-11-21T04:53:56;22.27;;;12.53;;
8640;SDS011;4358;42.100;25.222;2023-11-21T04:56:23;20.40;;;10.97;;
8640;SDS011;4358;42.100;25.222;2023-11-21T04:58:53;22.57;;;12.00;;
8640;SDS011;4358;42.100;25.222;2023-11-21T05:01:21;21.53;;;12.20;;
8640;SDS011;4358;42.100;25.222;2023-11-21T05:03:48;20.97;;;13.57;;
8640;SDS011;4358;42.100;25.222;2023-11-21T05:06:15;19.90;;;11.40;;
8640;SDS011;4358;42.100;25.222;2023-11-21T05:08:42;15.17;;;9.17;;
8640;SDS011;4358;42.100;25.222;2023-11-21T05:11:09;15.53;;;9.60;;
8640;SDS011;4358;42.100;25.222;2023-11-21T05:13:36;13.87;;;8.47;;
8640;SDS011;4358;42.100;25.222;2023-11-21T05:16:05;11.80;;;6.83;;
8640;SDS011;4358;42.100;25.222;2023-11-21T05:18:33;11.30;;;6.43;;
8640;SDS011;4358;42.100;25.222;2023-11-21T05:21:00;16.60;;;7.30;;
8640;SDS011;4358;42.100;25.222;2023-11-21T05:23:27;10.13;;;5.40;;
8640;SDS011;4358;42.100;25.222;2023-11-21T05:25:54;13.00;;;6.47;;
8640;SDS011;4358;42.100;25.222;2023-11-21T05:28:21;13.07;;;7.57;;
8640;SDS011;4358;42.100;25.222;2023-11-21T05:30:48;9.63;;;5.77;;
8640;SDS011;4358;42.100;25.222;2023-11-21T05:33:17;13.83;;;6.97;;
8640;SDS011;4358;42.100;25.222;2023-11-21T05:35:44;13.70;;;7.67;;
8640;SDS011;4358;42.100;25.222;2023-11-21T05:38:11;17.43;;;7.87;;
8640;SDS011;4358;42.100;25.222;2023-11-21T05:40:38;17.60;;;8.30;;
8640;SDS011;4358;42.100;25.222;2023-11-21T05:43:04;16.20;;;8.13;;
8640;SDS011;4358;42.100;25.222;2023-11-21T05:45:32;16.07;;;8.00;;
8640;SDS011;4358;42.100;25.222;2023-11-21T05:47:58;20.97;;;9.03;;
8640;SDS011;4358;42.100;25.222;2023-11-21T05:50:27;30.17;;;9.00;;
8640;SDS011;4358;42.100;25.222;2023-11-21T05:52:53;26.70;;;8.33;;
8640;SDS011;4358;42.100;25.222;2023-11-21T05:55:22;13.43;;;8.20;;
8640;SDS011;4358;42.100;25.222;2023-11-21T05:57:51;21.10;;;9.00;;
8640;SDS011;4358;42.100;25.222;2023-11-21T06:00:18;17.13;;;8.10;;
8640;SDS011;4358;42.100;25.222;2023-11-21T06:02:47;15.67;;;8.87;;
8640;SDS011;4358;42.100;25.222;2023-11-21T06:05:16;18.60;;;10.07;;
8640;SDS011;4358;42.100;25.222;2023-11-21T06:07:45;25.23;;;11.03;;
8640;SDS011;4358;42.100;25.222;2023-11-21T06:10:12;22.93;;;11.77;;
8640;SDS011;4358;42.100;25.222;2023-11-21T06:12:39;16.57;;;10.73;;
8640;SDS011;4358;42.100;25.222;2023-11-21T06:15:08;23.40;;;13.93;;
8640;SDS011;4358;42.100;25.222;2023-11-21T06:17:38;29.53;;;15.47;;
8640;SDS011;4358;42.100;25.222;2023-11-21T06:20:06;30.03;;;17.37;;
8640;SDS011;4358;42.100;25.222;2023-11-21T06:22:35;29.93;;;15.60;;
8640;SDS011;4358;42.100;25.222;2023-11-21T06:25:04;24.77;;;13.33;;
8640;SDS011;4358;42.100;25.222;2023-11-21T06:27:33;23.53;;;12.67;;
8640;SDS011;4358;42.100;25.222;2023-11-21T06:30:03;25.90;;;14.20;;
8640;SDS011;4358;42.100;25.222;2023-11-21T06:32:31;29.80;;;19.80;;
8640;SDS011;4358;42.100;25.222;2023-11-21T06:34:58;61.50;;;48.67;;
8640;SDS011;4358;42.100;25.222;2023-11-21T06:37:26;32.57;;;22.60;;
8640;SDS011;4358;42.100;25.222;2023-11-21T06:39:53;27.03;;;15.23;;
8640;SDS011;4358;42.100;25.222;2023-11-21T06:42:23;31.23;;;18.30;;
8640;SDS011;4358;42.100;25.222;2023-11-21T06:44:50;26.33;;;16.27;;
8640;SDS011;4358;42.100;25.222;2023-11-21T06:47:18;32.40;;;20.87;;
8640;SDS011;4358;42.100;25.222;2023-11-21T06:49:46;27.37;;;16.60;;
8640;SDS011;4358;42.100;25.222;2023-11-21T06:52:14;22.87;;;13.30;;
8640;SDS011;4358;42.100;25.222;2023-11-21T06:54:41;24.23;;;14.00;;
8640;SDS011;4358;42.100;25.222;2023-11-21T06:57:08;18.37;;;11.83;;
8640;SDS011;4358;42.100;25.222;2023-11-21T06:59:36;21.63;;;12.13;;
8640;SDS011;4358;42.100;25.222;2023-11-21T07:02:03;20.80;;;12.17;;
8640;SDS011;4358;42.100;25.222;2023-11-21T07:04:31;18.53;;;11.90;;
8640;SDS011;4358;42.100;25.222;2023-11-21T07:06:58;19.17;;;11.37;;
8640;SDS011;4358;42.100;25.222;2023-11-21T07:09:26;15.77;;;9.60;;
8640;SDS011;4358;42.100;25.222;2023-11-21T07:11:52;15.70;;;8.87;;
8640;SDS011;4358;42.100;25.222;2023-11-21T07:14:20;53.40;;;26.80;;
8640;SDS011;4358;42.100;25.222;2023-11-21T07:16:48;61.43;;;39.23;;
8640;SDS011;4358;42.100;25.222;2023-11-21T07:19:16;60.47;;;39.70;;
8640;SDS011;4358;42.100;25.222;2023-11-21T07:21:43;24.47;;;15.03;;
8640;SDS011;4358;42.100;25.222;2023-11-21T07:24:10;37.73;;;20.00;;
8640;SDS011;4358;42.100;25.222;2023-11-21T07:26:37;24.93;;;15.80;;
8640;SDS011;4358;42.100;25.222;2023-11-21T07:29:04;35.00;;;24.33;;
8640;SDS011;4358;42.100;25.222;2023-11-21T07:31:31;22.83;;;16.63;;
8640;SDS011;4358;42.100;25.222;2023-11-21T07:34:01;13.37;;;10.33;;
8640;SDS011;4358;42.100;25.222;2023-11-21T07:36:28;23.30;;;13.77;;
8640;SDS011;4358;42.100;25.222;2023-11-21T07:38:54;22.37;;;10.23;;
8640;SDS011;4358;42.100;25.222;2023-11-21T07:41:21;12.63;;;7.60;;
8640;SDS011;4358;42.100;25.222;2023-11-21T07:43:48;12.80;;;7.80;;
8640;SDS011;4358;42.100;25.222;2023-11-21T07:46:15;13.37;;;7.60;;
8640;SDS011;4358;42.100;25.222;2023-11-21T07:48:43;15.63;;;8.47;;
8640;SDS011;4358;42.100;25.222;2023-11-21T07:51:12;13.07;;;7.97;;
8640;SDS011;4358;42.100;25.222;2023-11-21T07:53:39;10.50;;;7.23;;
8640;SDS011;4358;42.100;25.222;2023-11-21T07:56:06;14.53;;;7.47;;
8640;SDS011;4358;42.100;25.222;2023-11-21T07:58:35;19.27;;;8.27;;
8640;SDS011;4358;42.100;25.222;2023-11-21T08:01:02;13.13;;;7.10;;
8640;SDS011;4358;42.100;25.222;2023-11-21T08:03:30;13.10;;;6.90;;
8640;SDS011;4358;42.100;25.222;2023-11-21T08:05:57;9.67;;;6.70;;
8640;SDS011;4358;42.100;25.222;2023-11-21T08:08:25;11.93;;;6.60;;
8640;SDS011;4358;42.100;25.222;2023-11-21T08:10:52;8.27;;;6.60;;
8640;SDS011;4358;42.100;25.222;2023-11-21T08:13:22;11.47;;;7.20;;
8640;SDS011;4358;42.100;25.222;2023-11-21T08:15:49;8.30;;;5.93;;
8640;SDS011;4358;42.100;25.222;2023-11-21T08:18:17;9.13;;;6.30;;
8640;SDS011;4358;42.100;25.222;2023-11-21T08:20:44;8.70;;;6.50;;
8640;SDS011;4358;42.100;25.222;2023-11-21T08:23:13;12.93;;;7.77;;
8640;SDS011;4358;42.100;25.222;2023-11-21T08:25:43;30.73;;;17.07;;
8640;SDS011;4358;42.100;25.222;2023-11-21T08:28:10;11.30;;;7.23;;
8640;SDS011;4358;42.100;25.222;2023-11-21T08:30:39;9.03;;;6.83;;
8640;SDS011;4358;42.100;25.222;2023-11-21T08:33:07;8.90;;;6.80;;
8640;SDS011;4358;42.100;25.222;2023-11-21T08:35:34;8.50;;;6.47;;
8640;SDS011;4358;42.100;25.222;2023-11-21T08:38:02;10.17;;;6.80;;
8640;SDS011;4358;42.100;25.222;2023-11-21T08:40:29;12.50;;;7.30;;
8640;SDS011;4358;42.100;25.222;2023-11-21T08:42:57;9.73;;;6.87;;
8640;SDS011;4358;42.100;25.222;2023-11-21T08:45:25;11.87;;;6.60;;
8640;SDS011;4358;42.100;25.222;2023-11-21T08:47:52;10.03;;;7.33;;
8640;SDS011;4358;42.100;25.222;2023-11-21T08:50:19;13.93;;;7.57;;
8640;SDS011;4358;42.100;25.222;2023-11-21T08:52:46;10.60;;;7.03;;
8640;SDS011;4358;42.100;25.222;2023-11-21T08:55:13;10.77;;;7.43;;
8640;SDS011;4358;42.100;25.222;2023-11-21T08:57:40;9.03;;;6.43;;
8640;SDS011;4358;42.100;25.222;2023-11-21T09:00:11;7.60;;;5.70;;
8640;SDS011;4358;42.100;25.222;2023-11-21T09:02:40;13.27;;;5.97;;
8640;SDS011;4358;42.100;25.222;2023-11-21T09:05:08;6.40;;;4.80;;
8640;SDS011;4358;42.100;25.222;2023-11-21T09:07:35;7.03;;;5.10;;
8640;SDS011;4358;42.100;25.222;2023-11-21T09:10:02;7.00;;;5.87;;
8640;SDS011;4358;42.100;25.222;2023-11-21T09:12:31;9.60;;;6.00;;
8640;SDS011;4358;42.100;25.222;2023-11-21T09:14:58;8.97;;;5.97;;
8640;SDS011;4358;42.100;25.222;2023-11-21T09:17:26;8.70;;;5.37;;
8640;SDS011;4358;42.100;25.222;2023-11-21T09:19:53;10.83;;;5.80;;
8640;SDS011;4358;42.100;25.222;2023-11-21T09:22:20;10.13;;;5.90;;
8640;SDS011;4358;42.100;25.222;2023-11-21T09:24:47;10.00;;;6.07;;
8640;SDS011;4358;42.100;25.222;2023-11-21T09:27:13;10.63;;;5.60;;
8640;SDS011;4358;42.100;25.222;2023-11-21T09:29:40;6.33;;;5.07;;
8640;SDS011;4358;42.100;25.222;2023-11-21T09:32:08;9.27;;;5.23;;
8640;SDS011;4358;42.100;25.222;2023-11-21T09:34:38;8.17;;;5.10;;
8640;SDS011;4358;42.100;25.222;2023-11-21T09:37:07;7.63;;;5.17;;
8640;SDS011;4358;42.100;25.222;2023-11-21T09:39:34;7.30;;;5.27;;
8640;SDS011;4358;42.100;25.222;2023-11-21T09:42:04;8.20;;;5.33;;
8640;SDS011;4358;42.100;25.222;2023-11-21T09:44:36;7.47;;;5.13;;
8640;SDS011;4358;42.100;25.222;2023-11-21T09:47:14;7.60;;;4.60;;
8640;SDS011;4358;42.100;25.222;2023-11-21T09:49:44;6.50;;;4.50;;
8640;SDS011;4358;42.100;25.222;2023-11-21T09:52:17;7.10;;;4.87;;
8640;SDS011;4358;42.100;25.222;2023-11-21T09:54:50;10.30;;;6.53;;
8640;SDS011;4358;42.100;25.222;2023-11-21T09:57:19;7.97;;;5.17;;
8640;SDS011;4358;42.100;25.222;2023-11-21T09:59:47;5.47;;;4.20;;
8640;SDS011;4358;42.100;25.222;2023-11-21T10:02:20;6.70;;;3.23;;
8640;SDS011;4358;42.100;25.222;2023-11-21T10:04:52;5.57;;;3.30;;
8640;SDS011;4358;42.100;25.222;2023-11-21T10:07:20;3.67;;;3.03;;
8640;SDS011;4358;42.100;25.222;2023-11-21T10:09:47;5.13;;;2.80;;
8640;SDS011;4358;42.100;25.222;2023-11-21T10:12:14;12.77;;;3.47;;
8640;SDS011;4358;42.100;25.222;2023-11-21T10:14:42;5.87;;;3.57;;
8640;SDS011;4358;42.100;25.222;2023-11-21T10:17:10;3.17;;;2.60;;
8640;SDS011;4358;42.100;25.222;2023-11-21T10:19:39;5.03;;;2.70;;
8640;SDS011;4358;42.100;25.222;2023-11-21T10:22:08;5.40;;;3.07;;
8640;SDS011;4358;42.100;25.222;2023-11-21T10:24:35;5.43;;;2.70;;
8640;SDS011;4358;42.100;25.222;2023-11-21T10:27:03;3.73;;;3.07;;
8640;SDS011;4358;42.100;25.222;2023-11-21T10:29:30;2.83;;;2.43;;
8640;SDS011;4358;42.100;25.222;2023-11-21T10:32:01;5.07;;;3.20;;
8640;SDS011;4358;42.100;25.222;2023-11-21T10:34:29;4.27;;;3.10;;
8640;SDS011;4358;42.100;25.222;2023-11-21T10:36:56;4.43;;;2.90;;
8640;SDS011;4358;42.100;25.222;2023-11-21T10:39:25;4.10;;;2.80;;
8640;SDS011;4358;42.100;25.222;2023-11-21T10:41:56;4.50;;;2.57;;
8640;SDS011;4358;42.100;25.222;2023-11-21T10:44:23;2.97;;;2.23;;
8640;SDS011;4358;42.100;25.222;2023-11-21T10:46:51;3.80;;;2.50;;
8640;SDS011;4358;42.100;25.222;2023-11-21T10:49:21;3.30;;;2.67;;
8640;SDS011;4358;42.100;25.222;2023-11-21T10:51:50;3.70;;;3.00;;
8640;SDS011;4358;42.100;25.222;2023-11-21T10:54:18;4.37;;;3.00;;
8640;SDS011;4358;42.100;25.222;2023-11-21T10:56:49;4.73;;;3.43;;
8640;SDS011;4358;42.100;25.222;2023-11-21T10:59:17;4.83;;;3.43;;
8640;SDS011;4358;42.100;25.222;2023-11-21T11:01:44;5.73;;;3.73;;
8640;SDS011;4358;42.100;25.222;2023-11-21T11:04:12;4.57;;;3.03;;
8640;SDS011;4358;42.100;25.222;2023-11-21T11:06:42;5.00;;;3.13;;
8640;SDS011;4358;42.100;25.222;2023-11-21T11:09:10;4.17;;;2.83;;
8640;SDS011;4358;42.100;25.222;2023-11-21T11:11:41;3.90;;;2.70;;
8640;SDS011;4358;42.100;25.222;2023-11-21T11:14:11;6.23;;;3.40;;
8640;SDS011;4358;42.100;25.222;2023-11-21T11:16:38;4.17;;;3.20;;
8640;SDS011;4358;42.100;25.222;2023-11-21T11:19:08;4.50;;;3.00;;
8640;SDS011;4358;42.100;25.222;2023-11-21T11:21:41;3.90;;;3.03;;
8640;SDS011;4358;42.100;25.222;2023-11-21T11:24:20;4.43;;;2.80;;
8640;SDS011;4358;42.100;25.222;2023-11-21T11:27:01;4.03;;;2.80;;
8640;SDS011;4358;42.100;25.222;2023-11-21T11:29:41;5.37;;;3.90;;
8640;SDS011;4358;42.100;25.222;2023-11-21T11:32:17;6.73;;;3.27;;
8640;SDS011;4358;42.100;25.222;2023-11-21T11:34:53;21.13;;;14.37;;
8640;SDS011;4358;42.100;25.222;2023-11-21T11:37:26;4.97;;;3.93;;
8640;SDS011;4358;42.100;25.222;2023-11-21T11:39:53;5.40;;;3.53;;
8640;SDS011;4358;42.100;25.222;2023-11-21T11:42:22;4.17;;;3.20;;
8640;SDS011;4358;42.100;25.222;2023-11-21T11:44:51;4.40;;;2.97;;
8640;SDS011;4358;42.100;25.222;2023-11-21T11:47:24;6.20;;;4.97;;
8640;SDS011;4358;42.100;25.222;2023-11-21T11:50:00;7.77;;;3.87;;
8640;SDS011;4358;42.100;25.222;2023-11-21T11:52:35;5.40;;;3.50;;
8640;SDS011;4358;42.100;25.222;2023-11-21T11:55:05;7.67;;;5.20;;
8640;SDS011;4358;42.100;25.222;2023-11-21T11:57:35;10.33;;;8.43;;
8640;SDS011;4358;42.100;25.222;2023-11-21T12:00:13;4.97;;;3.50;;
8640;SDS011;4358;42.100;25.222;2023-11-21T12:02:44;4.57;;;3.37;;
8640;SDS011;4358;42.100;25.222;2023-11-21T12:05:13;10.50;;;3.00;;
8640;SDS011;4358;42.100;25.222;2023-11-21T12:07:44;3.70;;;2.90;;
8640;SDS011;4358;42.100;25.222;2023-11-21T12:10:13;3.23;;;2.70;;
8640;SDS011;4358;42.100;25.222;2023-11-21T12:12:46;6.70;;;3.10;;
8640;SDS011;4358;42.100;25.222;2023-11-21T12:15:15;3.47;;;2.90;;
8640;SDS011;4358;42.100;25.222;2023-11-21T12:17:43;4.20;;;3.00;;
8640;SDS011;4358;42.100;25.222;2023-11-21T12:20:10;6.07;;;3.23;;
8640;SDS011;4358;42.100;25.222;2023-11-21T12:22:43;3.70;;;3.07;;
8640;SDS011;4358;42.100;25.222;2023-11-21T12:25:13;6.37;;;3.13;;
8640;SDS011;4358;42.100;25.222;2023-11-21T12:27:42;4.70;;;3.50;;
8640;SDS011;4358;42.100;25.222;2023-11-21T12:30:11;5.87;;;3.93;;
8640;SDS011;4358;42.100;25.222;2023-11-21T12:32:43;8.77;;;3.93;;
8640;SDS011;4358;42.100;25.222;2023-11-21T12:35:11;4.60;;;3.60;;
8640;SDS011;4358;42.100;25.222;2023-11-21T12:37:39;5.43;;;3.27;;
8640;SDS011;4358;42.100;25.222;2023-11-21T12:40:08;2.60;;;2.33;;
8640;SDS011;4358;42.100;25.222;2023-11-21T12:42:39;3.67;;;2.90;;
8640;SDS011;4358;42.100;25.222;2023-11-21T12:45:07;7.70;;;3.40;;
8640;SDS011;4358;42.100;25.222;2023-11-21T12:47:39;4.13;;;2.90;;
8640;SDS011;4358;42.100;25.222;2023-11-21T12:50:09;7.07;;;3.77;;
8640;SDS011;4358;42.100;25.222;2023-11-21T12:52:40;4.07;;;3.17;;
8640;SDS011;4358;42.100;25.222;2023-11-21T12:55:13;4.10;;;3.53;;
8640;SDS011;4358;42.100;25.222;2023-11-21T12:57:43;6.70;;;4.77;;
8640;SDS011;4358;42.100;25.222;2023-11-21T13:00:11;5.00;;;4.07;;
8640;SDS011;4358;42.100;25.222;2023-11-21T13:02:52;6.50;;;4.13;;
8640;SDS011;4358;42.100;25.222;2023-11-21T13:05:29;6.43;;;4.33;;
8640;SDS011;4358;42.100;25.222;2023-11-21T13:07:58;7.33;;;3.97;;
8640;SDS011;4358;42.100;25.222;2023-11-21T13:10:28;7.07;;;4.37;;
8640;SDS011;4358;42.100;25.222;2023-11-21T13:12:56;4.60;;;3.80;;
8640;SDS011;4358;42.100;25.222;2023-11-21T13:15:30;5.77;;;3.60;;
8640;SDS011;4358;42.100;25.222;2023-11-21T13:18:00;7.73;;;4.47;;
8640;SDS011;4358;42.100;25.222;2023-11-21T13:20:28;10.17;;;4.03;;
8640;SDS011;4358;42.100;25.222;2023-11-21T13:22:56;3.93;;;3.20;;
8640;SDS011;4358;42.100;25.222;2023-11-21T13:25:24;5.77;;;4.20;;
8640;SDS011;4358;42.100;25.222;2023-11-21T13:27:52;5.07;;;3.90;;
8640;SDS011;4358;42.100;25.222;2023-11-21T13:30:19;4.87;;;3.93;;
8640;SDS011;4358;42.100;25.222;2023-11-21T13:32:51;11.80;;;5.47;;
8640;SDS011;4358;42.100;25.222;2023-11-21T13:35:22;8.97;;;6.30;;
8640;SDS011;4358;42.100;25.222;2023-11-21T13:37:57;10.67;;;6.20;;
8640;SDS011;4358;42.100;25.222;2023-11-21T13:40:31;8.93;;;5.80;;
8640;SDS011;4358;42.100;25.222;2023-11-21T13:43:01;8.17;;;5.63;;
8640;SDS011;4358;42.100;25.222;2023-11-21T13:45:30;9.50;;;5.40;;
8640;SDS011;4358;42.100;25.222;2023-11-21T13:47:57;8.57;;;5.33;;
8640;SDS011;4358;42.100;25.222;2023-11-21T13:50:24;4.77;;;3.40;;
8640;SDS011;4358;42.100;25.222;2023-11-21T13:52:59;7.07;;;3.33;;
8640;SDS011;4358;42.100;25.222;2023-11-21T13:55:29;3.53;;;3.03;;
8640;SDS011;4358;42.100;25.222;2023-11-21T13:57:56;9.33;;;5.40;;
8640;SDS011;4358;42.100;25.222;2023-11-21T14:00:24;10.03;;;7.33;;
8640;SDS011;4358;42.100;25.222;2023-11-21T14:03:08;21.17;;;10.40;;
8640;SDS011;4358;42.100;25.222;2023-11-21T14:05:42;24.27;;;12.27;;
8640;SDS011;4358;42.100;25.222;2023-11-21T14:08:13;19.63;;;10.53;;
8640;SDS011;4358;42.100;25.222;2023-11-21T14:10:42;18.27;;;9.60;;
8640;SDS011;4358;42.100;25.222;2023-11-21T14:13:10;19.20;;;10.00;;
8640;SDS011;4358;42.100;25.222;2023-11-21T14:15:38;11.80;;;6.83;;
8640;SDS011;4358;42.100;25.222;2023-11-21T14:18:08;9.77;;;8.20;;
8640;SDS011;4358;42.100;25.222;2023-11-21T14:20:37;10.23;;;7.67;;
8640;SDS011;4358;42.100;25.222;2023-11-21T14:23:05;9.23;;;7.43;;
8640;SDS011;4358;42.100;25.222;2023-11-21T14:25:33;10.67;;;6.70;;
8640;SDS011;4358;42.100;25.222;2023-11-21T14:28:02;9.30;;;5.83;;
8640;SDS011;4358;42.100;25.222;2023-11-21T14:30:31;9.13;;;5.67;;
8640;SDS011;4358;42.100;25.222;2023-11-21T14:33:00;9.37;;;6.03;;
8640;SDS011;4358;42.100;25.222;2023-11-21T14:35:27;8.13;;;6.03;;
8640;SDS011;4358;42.100;25.222;2023-11-21T14:37:55;7.80;;;6.07;;
8640;SDS011;4358;42.100;25.222;2023-11-21T14:40:23;6.83;;;4.77;;
8640;SDS011;4358;42.100;25.222;2023-11-21T14:42:52;9.20;;;4.37;;
8640;SDS011;4358;42.100;25.222;2023-11-21T14:45:22;5.57;;;3.77;;
8640;SDS011;4358;42.100;25.222;2023-11-21T14:47:51;4.67;;;3.93;;
8640;SDS011;4358;42.100;25.222;2023-11-21T14:50:27;7.10;;;4.07;;
8640;SDS011;4358;42.100;25.222;2023-11-21T14:53:34;8.97;;;5.60;;
8640;SDS011;4358;42.100;25.222;2023-11-21T14:56:09;15.73;;;10.00;;
8640;SDS011;4358;42.100;25.222;2023-11-21T14:58:37;23.77;;;12.50;;